首页
METAR-TAF:

METAR-TAF

机场 :

馬里伯爾愛德華·盧希揚機場

马里博尔, 斯洛文尼亚

纬度: 46-29N, 经度: 015-41E, 海拔: 264米

当前天气观测

该预报发布于39分钟前的09:30 UTC
风速10节,风向,在北转西北东北之间变化
温度 20°C
湿度 53%
气压 1018 hPa
能见度10公里或以上
少量云层高于3600英尺
多云层高于5000英尺

METAR: LJMB 010930Z 36010KT 330V040 9999 FEW036 BKN050 20/10 Q1018

时间: 12:09 (10:09 UTC)

预报

该预报发布于5小时和9分钟前的05:00 UTC
预报有效从01日的 06点(UTC)到 02日的 06点(UTC)
风速5节,风向北转东北
能见度10公里或以上
多云层高于4000英尺
短暂存在
从 01日的 06点(UTC)到 01日的 15点(UTC)
风速15节,风向北转东北,有时为25节阵风

TAF: LJMB 010500Z 0106/0206 02005KT 9999 BKN040 TEMPO 0106/0115 02015G25KT

超过4000个机场的气象观测和天气预报(METAR&TAF报告)。

可查询的气象台以黄色和红色小点在地图上表示。

将鼠标移到小点上方,可查看气象台名称。

然后点击查看天气观测和预报。

如需切换地图:点击带黑十字的绿色按钮放大地图;点击带横线的绿色按钮缩小地图;或者点击绿色箭头查看邻近地区的地图。


METAR-TAF: